createdAt,value
2023-03-31T00:01:33.909Z,1.87
2023-03-31T00:04:04.994Z,1.53
2023-03-31T00:06:38.304Z,1.23
2023-03-31T00:09:07.006Z,1.70
2023-03-31T00:11:34.597Z,2.20
2023-03-31T00:14:02.371Z,1.43
2023-03-31T00:16:30.028Z,1.40
2023-03-31T00:18:57.499Z,1.70
2023-03-31T00:21:25.594Z,1.40
2023-03-31T00:23:58.392Z,1.80
2023-03-31T00:26:26.471Z,1.90
2023-03-31T00:28:54.329Z,1.53
2023-03-31T00:31:22.597Z,1.73
2023-03-31T00:33:50.785Z,1.20
2023-03-31T00:36:21.572Z,1.50
2023-03-31T00:38:49.917Z,1.63
2023-03-31T00:41:17.420Z,1.60
2023-03-31T00:44:01.827Z,1.67
2023-03-31T00:46:32.063Z,1.57
2023-03-31T00:48:59.432Z,1.47
2023-03-31T00:51:30.115Z,1.17
2023-03-31T00:53:59.935Z,1.43
2023-03-31T00:56:29.629Z,1.50
2023-03-31T00:59:01.727Z,1.33
2023-03-31T01:01:30.591Z,1.47
2023-03-31T01:03:59.211Z,1.47
2023-03-31T01:06:30.922Z,1.20
2023-03-31T01:08:59.858Z,1.83
2023-03-31T01:11:30.629Z,1.40
2023-03-31T01:13:58.072Z,1.87
2023-03-31T01:16:25.476Z,1.83
2023-03-31T01:18:57.492Z,1.50
2023-03-31T01:21:38.795Z,1.30
2023-03-31T01:24:20.743Z,1.27
2023-03-31T01:26:57.828Z,1.07
2023-03-31T01:29:44.291Z,1.13
2023-03-31T01:32:30.877Z,1.30
2023-03-31T01:35:21.090Z,1.33
2023-03-31T01:38:07.495Z,1.37
2023-03-31T01:40:42.113Z,1.20
2023-03-31T01:43:12.675Z,1.67
2023-03-31T01:45:55.536Z,1.23
2023-03-31T01:48:42.099Z,1.30
2023-03-31T01:51:35.019Z,1.07
2023-03-31T01:54:23.908Z,1.23
2023-03-31T01:57:00.896Z,1.27
2023-03-31T01:59:30.662Z,1.50
2023-03-31T02:02:05.855Z,1.10
2023-03-31T02:04:42.500Z,1.60
2023-03-31T02:07:18.119Z,1.40
2023-03-31T02:09:49.477Z,1.57
2023-03-31T02:12:18.303Z,1.23
2023-03-31T02:14:49.637Z,1.40
2023-03-31T02:17:18.433Z,1.47
2023-03-31T02:19:48.623Z,1.40
2023-03-31T02:22:17.345Z,1.60
2023-03-31T02:24:45.468Z,1.63
2023-03-31T02:27:18.400Z,1.20
2023-03-31T02:29:46.005Z,1.20
2023-03-31T02:32:19.525Z,1.40
2023-03-31T02:34:49.309Z,1.30
2023-03-31T02:37:16.912Z,1.40
2023-03-31T02:39:46.294Z,1.20
2023-03-31T02:42:13.635Z,1.87
2023-03-31T02:44:41.719Z,1.40
2023-03-31T02:47:11.094Z,1.40
2023-03-31T02:49:39.887Z,1.37
2023-03-31T02:52:16.776Z,1.63
2023-03-31T02:55:01.309Z,1.40
2023-03-31T02:57:36.105Z,1.27
2023-03-31T03:00:08.179Z,1.30
2023-03-31T03:02:43.612Z,1.40
2023-03-31T03:05:20.989Z,1.37
2023-03-31T03:08:14.536Z,1.57
2023-03-31T03:11:00.731Z,1.20
2023-03-31T03:13:34.570Z,1.30
2023-03-31T03:16:04.861Z,1.13
2023-03-31T03:18:32.533Z,1.50
2023-03-31T03:21:00.068Z,1.30
2023-03-31T03:23:27.698Z,1.43
2023-03-31T03:25:58.229Z,1.23
2023-03-31T03:28:25.672Z,1.10
2023-03-31T03:30:53.629Z,1.20
2023-03-31T03:33:25.059Z,1.30
2023-03-31T03:35:52.519Z,1.63
2023-03-31T03:38:19.957Z,1.50
2023-03-31T03:40:49.966Z,1.40
2023-03-31T03:43:18.327Z,1.40
2023-03-31T03:45:49.735Z,1.27
2023-03-31T03:48:17.207Z,1.30
2023-03-31T03:50:46.298Z,1.63
2023-03-31T03:53:13.923Z,1.20
2023-03-31T03:55:41.270Z,1.30
2023-03-31T03:58:08.869Z,1.23
2023-03-31T04:00:36.200Z,1.37
2023-03-31T04:03:03.617Z,1.30
2023-03-31T04:05:33.192Z,1.10
2023-03-31T04:08:01.131Z,1.50
2023-03-31T04:10:28.417Z,1.10
2023-03-31T04:12:55.737Z,1.10
2023-03-31T04:15:23.199Z,1.10
2023-03-31T04:17:54.871Z,1.10
2023-03-31T04:20:22.482Z,1.17
2023-03-31T04:22:50.716Z,1.50
2023-03-31T04:25:18.250Z,1.30
2023-03-31T04:27:47.021Z,1.27
2023-03-31T04:30:22.845Z,1.43
2023-03-31T04:32:55.282Z,1.20
2023-03-31T04:35:24.314Z,1.57
2023-03-31T04:37:58.800Z,1.57
2023-03-31T04:40:26.653Z,1.40
2023-03-31T04:42:54.030Z,1.43
2023-03-31T04:45:24.735Z,1.10
2023-03-31T04:47:52.345Z,1.10
2023-03-31T04:50:19.907Z,1.20
2023-03-31T04:52:47.207Z,1.60
2023-03-31T04:55:14.549Z,1.10
2023-03-31T04:57:42.142Z,1.50
2023-03-31T05:00:11.025Z,1.17
2023-03-31T05:02:38.534Z,1.23
2023-03-31T05:05:06.054Z,1.53
2023-03-31T05:07:34.249Z,1.70
2023-03-31T05:10:01.531Z,1.50
2023-03-31T05:12:28.919Z,1.53
2023-03-31T05:14:56.175Z,1.27
2023-03-31T05:17:23.475Z,2.20
2023-03-31T05:19:53.411Z,1.60
2023-03-31T05:22:20.814Z,1.23
2023-03-31T05:24:48.280Z,1.27
2023-03-31T05:27:16.481Z,1.90
2023-03-31T05:29:44.042Z,1.20
2023-03-31T05:32:11.781Z,1.40
2023-03-31T05:34:43.279Z,1.57
2023-03-31T05:37:10.735Z,1.33
2023-03-31T05:39:38.210Z,1.37
2023-03-31T05:42:06.042Z,1.40
2023-03-31T05:44:33.412Z,1.20
2023-03-31T05:47:00.806Z,1.10
2023-03-31T05:49:31.195Z,1.30
2023-03-31T05:51:58.764Z,1.30
2023-03-31T05:54:26.312Z,1.20
2023-03-31T05:56:56.151Z,1.00
2023-03-31T05:59:23.727Z,1.40
2023-03-31T06:01:51.212Z,1.10
2023-03-31T06:04:18.691Z,1.20
2023-03-31T06:06:50.432Z,1.50
2023-03-31T06:09:18.799Z,1.47
2023-03-31T06:11:49.377Z,1.13
2023-03-31T06:14:17.913Z,1.20
2023-03-31T06:16:48.275Z,1.53
2023-03-31T06:19:15.779Z,1.30
2023-03-31T06:21:45.575Z,1.60
2023-03-31T06:24:15.740Z,1.43
2023-03-31T06:26:43.232Z,1.30
2023-03-31T06:29:10.596Z,1.17
2023-03-31T06:31:38.230Z,1.30
2023-03-31T06:34:06.665Z,1.00
2023-03-31T06:36:34.117Z,1.20
2023-03-31T06:39:03.695Z,1.30
2023-03-31T06:41:31.087Z,1.10
2023-03-31T06:43:58.595Z,1.13
2023-03-31T06:46:26.084Z,1.30
2023-03-31T06:48:54.364Z,1.23
2023-03-31T06:51:21.732Z,1.20
2023-03-31T06:53:49.109Z,1.13
2023-03-31T06:56:16.609Z,1.33
2023-03-31T06:58:44.034Z,0.90
2023-03-31T07:01:12.068Z,1.00
2023-03-31T07:03:39.709Z,0.93
2023-03-31T07:06:07.461Z,1.10
2023-03-31T07:08:35.214Z,1.00
2023-03-31T07:11:02.883Z,1.20
2023-03-31T07:13:30.454Z,0.90
2023-03-31T07:15:58.139Z,1.30
2023-03-31T07:18:26.298Z,1.30
2023-03-31T07:20:54.398Z,1.20
2023-03-31T07:23:21.911Z,1.30
2023-03-31T07:25:49.353Z,1.00
2023-03-31T07:28:17.441Z,1.00
2023-03-31T07:30:47.084Z,0.90
2023-03-31T07:33:14.546Z,1.20
2023-03-31T07:35:42.482Z,1.00
2023-03-31T07:38:13.592Z,1.10
2023-03-31T07:40:41.758Z,1.00
2023-03-31T07:43:09.220Z,1.00
2023-03-31T07:45:36.733Z,1.20
2023-03-31T07:48:04.266Z,1.10
2023-03-31T07:50:31.919Z,1.20
2023-03-31T07:53:11.466Z,1.00
2023-03-31T07:55:41.510Z,1.00
2023-03-31T07:58:08.968Z,1.20
2023-03-31T08:00:36.405Z,1.47
2023-03-31T08:03:03.800Z,1.33
2023-03-31T08:05:32.437Z,1.67
2023-03-31T08:07:59.955Z,1.63
2023-03-31T08:10:27.852Z,1.30
2023-03-31T08:12:56.095Z,1.20
2023-03-31T08:15:28.404Z,1.23
2023-03-31T08:17:55.893Z,1.30
2023-03-31T08:20:24.145Z,1.43
2023-03-31T08:22:51.609Z,1.33
2023-03-31T08:25:20.722Z,1.37
2023-03-31T08:27:52.619Z,1.20
2023-03-31T08:30:21.127Z,1.37
2023-03-31T08:32:48.699Z,1.57
2023-03-31T08:35:16.130Z,1.60
2023-03-31T08:37:43.495Z,1.87
2023-03-31T08:40:17.373Z,1.33
2023-03-31T08:42:47.609Z,1.40
2023-03-31T08:45:41.365Z,1.20
2023-03-31T08:48:25.905Z,1.57
2023-03-31T08:50:56.572Z,1.30
2023-03-31T08:53:25.378Z,1.43
2023-03-31T08:55:57.634Z,1.60
2023-03-31T08:58:40.934Z,1.63
2023-03-31T09:01:23.367Z,1.77
2023-03-31T09:04:09.387Z,1.30
2023-03-31T09:06:56.992Z,1.60
2023-03-31T09:09:41.911Z,1.27
2023-03-31T09:12:24.230Z,1.70
2023-03-31T09:14:55.501Z,1.43
2023-03-31T09:17:30.220Z,1.40
2023-03-31T09:19:59.026Z,1.63
2023-03-31T09:22:29.283Z,1.77
2023-03-31T09:25:20.069Z,1.30
2023-03-31T09:27:47.988Z,1.67
2023-03-31T09:30:18.406Z,1.60
2023-03-31T09:32:50.387Z,1.60
2023-03-31T09:35:25.854Z,2.03
2023-03-31T09:37:54.272Z,1.57
2023-03-31T09:40:23.285Z,1.60
2023-03-31T09:43:01.529Z,1.67
2023-03-31T09:45:31.267Z,1.67
2023-03-31T09:47:59.963Z,1.20
2023-03-31T09:50:27.369Z,1.17
2023-03-31T09:52:57.715Z,1.30
2023-03-31T09:55:38.734Z,1.13
2023-03-31T09:58:07.860Z,1.40
2023-03-31T10:00:35.955Z,1.80
2023-03-31T10:03:07.712Z,1.30
2023-03-31T10:05:43.870Z,1.47
2023-03-31T10:08:17.265Z,1.50
2023-03-31T10:10:49.719Z,1.70
2023-03-31T10:13:21.661Z,1.20
2023-03-31T10:15:52.755Z,1.80
2023-03-31T10:18:21.406Z,1.60
2023-03-31T10:20:52.869Z,1.87
2023-03-31T10:23:23.249Z,1.33
2023-03-31T10:25:53.272Z,1.30
2023-03-31T10:28:21.426Z,1.30
2023-03-31T10:31:03.517Z,1.70
2023-03-31T10:33:37.750Z,1.50
2023-03-31T10:36:09.803Z,1.83
2023-03-31T10:38:40.854Z,1.33
2023-03-31T10:41:08.801Z,1.37
2023-03-31T10:43:43.918Z,1.40
2023-03-31T10:46:13.000Z,1.57
2023-03-31T10:48:42.245Z,1.17
2023-03-31T10:51:16.870Z,1.90
2023-03-31T10:53:49.860Z,1.50
2023-03-31T10:56:26.445Z,1.50
2023-03-31T10:59:05.963Z,1.40
2023-03-31T11:01:47.479Z,1.47
2023-03-31T11:04:34.260Z,1.53
2023-03-31T11:07:22.146Z,1.30
2023-03-31T11:10:08.581Z,1.40
2023-03-31T11:12:46.598Z,1.27
2023-03-31T11:15:30.425Z,1.20
2023-03-31T11:18:09.928Z,1.40
2023-03-31T11:20:56.299Z,1.30
2023-03-31T11:23:43.261Z,1.40
2023-03-31T11:26:18.868Z,1.40
2023-03-31T11:28:53.196Z,1.63
2023-03-31T11:31:23.842Z,1.30
2023-03-31T11:34:12.777Z,1.93
2023-03-31T11:36:58.949Z,1.10
2023-03-31T11:39:35.113Z,1.80
2023-03-31T11:42:05.979Z,1.20
2023-03-31T11:44:39.705Z,1.57
2023-03-31T11:47:10.226Z,1.20
2023-03-31T11:49:45.067Z,1.33
2023-03-31T11:52:15.266Z,1.30
2023-03-31T11:54:45.858Z,1.13
2023-03-31T11:57:36.619Z,1.20
2023-03-31T12:00:11.640Z,1.23
2023-03-31T12:03:01.449Z,1.40
2023-03-31T12:05:30.966Z,1.10
2023-03-31T12:08:13.853Z,1.40
2023-03-31T12:10:44.581Z,1.10
2023-03-31T12:13:21.438Z,1.17
2023-03-31T12:15:56.145Z,1.30
2023-03-31T12:18:26.790Z,1.23
2023-03-31T12:20:56.505Z,1.20
2023-03-31T12:23:26.000Z,1.20
2023-03-31T12:26:00.553Z,1.00
2023-03-31T12:28:28.634Z,1.10
2023-03-31T12:30:59.712Z,1.13
2023-03-31T12:33:38.370Z,1.30
2023-03-31T12:36:20.948Z,1.30
2023-03-31T12:39:06.998Z,1.03
2023-03-31T12:41:45.791Z,1.20
2023-03-31T12:44:22.973Z,1.10
2023-03-31T12:47:18.614Z,1.33
2023-03-31T12:50:01.069Z,1.10
2023-03-31T12:52:37.693Z,1.10
2023-03-31T12:55:16.048Z,1.50
2023-03-31T12:57:43.555Z,1.30
2023-03-31T13:00:13.939Z,1.00
2023-03-31T13:02:42.051Z,1.00
2023-03-31T13:05:28.769Z,0.97
2023-03-31T13:07:56.309Z,1.10
2023-03-31T13:10:28.283Z,1.43
2023-03-31T13:13:07.449Z,1.37
2023-03-31T13:15:35.119Z,1.20
2023-03-31T13:18:08.326Z,1.30
2023-03-31T13:20:37.593Z,1.20
2023-03-31T13:23:12.503Z,1.40
2023-03-31T13:25:40.609Z,1.37
2023-03-31T13:28:14.303Z,1.17
2023-03-31T13:30:41.789Z,1.30
2023-03-31T13:33:11.371Z,1.13
2023-03-31T13:35:42.624Z,1.13
2023-03-31T13:38:28.809Z,1.20
2023-03-31T13:41:21.706Z,1.30
2023-03-31T13:44:01.496Z,1.20
2023-03-31T13:46:48.533Z,1.20
2023-03-31T13:49:36.665Z,1.23
2023-03-31T13:52:11.132Z,1.37
2023-03-31T13:54:54.158Z,1.40
2023-03-31T13:57:40.713Z,1.57
2023-03-31T14:00:14.582Z,1.40
2023-03-31T14:02:46.102Z,1.13
2023-03-31T14:05:35.346Z,1.37
2023-03-31T14:08:14.782Z,1.30
2023-03-31T14:10:43.452Z,1.33
2023-03-31T14:13:20.527Z,1.40
2023-03-31T14:15:50.824Z,1.23
2023-03-31T14:18:33.328Z,1.30
2023-03-31T14:21:18.411Z,1.10
2023-03-31T14:23:53.026Z,1.37
2023-03-31T14:26:36.707Z,1.20
2023-03-31T14:29:12.661Z,1.30
2023-03-31T14:31:40.167Z,1.43
2023-03-31T14:34:08.930Z,1.30
2023-03-31T14:36:48.904Z,1.40
2023-03-31T14:39:21.209Z,1.20
2023-03-31T14:41:55.313Z,1.30
2023-03-31T14:44:26.227Z,1.10
2023-03-31T14:46:57.432Z,1.50
2023-03-31T14:49:29.386Z,1.10
2023-03-31T14:52:01.398Z,1.10
2023-03-31T14:54:28.938Z,1.37
2023-03-31T14:56:59.148Z,1.20
2023-03-31T14:59:29.259Z,1.40
2023-03-31T15:02:01.488Z,1.60
2023-03-31T15:04:41.466Z,1.17
2023-03-31T15:07:09.824Z,1.30
2023-03-31T15:09:42.245Z,1.13
2023-03-31T15:12:13.862Z,1.30
2023-03-31T15:31:17.265Z,1.40
2023-03-31T15:33:44.948Z,1.47
2023-03-31T15:36:12.935Z,1.30
2023-03-31T15:38:40.712Z,1.50
2023-03-31T15:41:14.949Z,1.40
2023-03-31T15:43:43.250Z,1.33
2023-03-31T15:46:12.547Z,1.40
2023-03-31T15:48:50.217Z,1.30
2023-03-31T15:51:17.659Z,1.60
2023-03-31T15:53:46.422Z,1.60
2023-03-31T15:56:35.813Z,1.43
2023-03-31T15:59:07.109Z,1.73
2023-03-31T16:01:35.945Z,1.80
2023-03-31T16:04:07.039Z,1.53
2023-03-31T16:06:43.374Z,1.50
2023-03-31T16:09:15.004Z,1.30
2023-03-31T16:11:51.175Z,1.40
2023-03-31T16:14:21.747Z,1.30
2023-03-31T16:16:51.314Z,1.07
2023-03-31T16:19:19.677Z,1.13
2023-03-31T16:21:52.811Z,1.30
2023-03-31T16:24:21.411Z,1.17
2023-03-31T16:26:49.614Z,1.20
2023-03-31T16:29:21.080Z,1.20
2023-03-31T16:31:48.779Z,1.27
2023-03-31T16:34:16.585Z,0.87
2023-03-31T16:36:44.238Z,0.90
2023-03-31T16:39:11.657Z,1.27
2023-03-31T16:41:39.161Z,1.00
2023-03-31T16:44:07.006Z,1.23
2023-03-31T16:46:34.502Z,1.50
2023-03-31T16:49:02.130Z,1.20
2023-03-31T16:51:29.618Z,1.10
2023-03-31T16:53:59.015Z,1.30
2023-03-31T16:56:27.386Z,1.20
2023-03-31T16:58:55.110Z,1.57
2023-03-31T17:01:22.554Z,0.90
2023-03-31T17:03:50.256Z,1.47
2023-03-31T17:06:17.739Z,1.20
2023-03-31T17:08:45.726Z,1.10
2023-03-31T17:11:14.414Z,1.27
2023-03-31T17:13:43.280Z,1.27
2023-03-31T17:16:17.577Z,1.23
2023-03-31T17:18:49.368Z,1.37
2023-03-31T17:21:20.432Z,1.10
2023-03-31T17:23:48.405Z,1.20
2023-03-31T17:26:16.226Z,1.00
2023-03-31T17:28:44.062Z,0.90
2023-03-31T17:31:15.629Z,1.23
2023-03-31T17:33:43.770Z,1.20
2023-03-31T17:36:11.496Z,1.10
2023-03-31T17:38:40.080Z,1.40
2023-03-31T17:41:09.088Z,1.10
2023-03-31T17:43:37.878Z,1.20
2023-03-31T17:46:13.256Z,1.30
2023-03-31T17:48:41.483Z,1.20
2023-03-31T17:51:10.292Z,1.20
2023-03-31T17:53:37.662Z,1.10
2023-03-31T17:56:05.248Z,1.30
2023-03-31T17:58:33.659Z,1.10
2023-03-31T18:01:01.073Z,1.27
2023-03-31T18:03:29.250Z,1.10
2023-03-31T18:05:56.743Z,1.30
2023-03-31T18:08:24.315Z,1.03
2023-03-31T18:10:51.694Z,1.17
2023-03-31T18:13:19.070Z,1.30
2023-03-31T18:15:48.439Z,1.10
2023-03-31T18:18:15.839Z,1.43
2023-03-31T18:20:43.238Z,1.20
2023-03-31T18:23:10.628Z,1.27
2023-03-31T18:25:38.268Z,1.10
2023-03-31T18:28:05.681Z,1.13
2023-03-31T18:30:33.574Z,1.20
2023-03-31T18:33:01.217Z,1.10
2023-03-31T18:35:30.107Z,1.50
2023-03-31T18:37:57.726Z,1.17
2023-03-31T18:40:25.189Z,1.40
2023-03-31T18:42:52.614Z,1.30
2023-03-31T18:45:19.948Z,1.47
2023-03-31T18:47:47.678Z,1.63
2023-03-31T18:50:15.358Z,1.60
2023-03-31T18:52:42.816Z,1.60
2023-03-31T18:55:10.601Z,1.10
2023-03-31T18:57:38.082Z,1.20
2023-03-31T19:00:06.763Z,1.60
2023-03-31T19:02:34.451Z,1.30
2023-03-31T19:05:02.044Z,1.10
2023-03-31T19:07:30.499Z,1.20
2023-03-31T19:09:58.082Z,1.30
2023-03-31T19:12:25.665Z,1.40
2023-03-31T19:14:53.512Z,1.60
2023-03-31T19:17:20.886Z,1.10
2023-03-31T19:19:48.726Z,1.57
2023-03-31T19:22:16.260Z,1.33
2023-03-31T19:24:45.179Z,1.10
2023-03-31T19:27:13.009Z,1.33
2023-03-31T19:29:40.567Z,1.37
2023-03-31T19:32:08.091Z,1.40
2023-03-31T19:34:36.327Z,1.30
2023-03-31T19:37:04.205Z,1.43
2023-03-31T19:39:31.687Z,1.60
2023-03-31T19:41:59.312Z,1.40
2023-03-31T19:44:26.632Z,1.37
2023-03-31T19:46:54.009Z,1.27
2023-03-31T19:49:21.787Z,1.30
2023-03-31T19:51:49.186Z,1.70
2023-03-31T19:54:17.461Z,1.07
2023-03-31T19:56:44.993Z,1.20
2023-03-31T19:59:12.425Z,1.20
2023-03-31T20:01:41.231Z,1.00
2023-03-31T20:04:08.751Z,1.93
2023-03-31T20:06:37.066Z,1.30
2023-03-31T20:09:06.315Z,1.77
2023-03-31T20:11:33.787Z,1.33
2023-03-31T20:14:01.878Z,1.30
2023-03-31T20:16:30.679Z,1.33
2023-03-31T20:18:59.468Z,1.33
2023-03-31T20:21:28.453Z,1.30
2023-03-31T20:23:57.308Z,1.50
2023-03-31T20:26:26.253Z,1.10
2023-03-31T20:28:58.555Z,1.40
2023-03-31T20:31:27.418Z,1.53
2023-03-31T20:33:55.548Z,1.97
2023-03-31T20:36:24.175Z,1.50
2023-03-31T20:38:53.224Z,1.40
2023-03-31T20:41:22.534Z,1.50
2023-03-31T20:43:50.685Z,1.70
2023-03-31T20:46:18.459Z,1.17
2023-03-31T20:48:47.981Z,1.40
2023-03-31T20:51:17.156Z,1.40
2023-03-31T20:53:45.394Z,1.40
2023-03-31T20:56:23.223Z,1.73
2023-03-31T20:58:51.058Z,1.67
2023-03-31T21:01:19.948Z,1.50
2023-03-31T21:03:47.786Z,1.37
2023-03-31T21:06:16.317Z,1.70
2023-03-31T21:08:47.227Z,1.33
2023-03-31T21:11:14.939Z,1.40
2023-03-31T21:13:43.382Z,1.30
2023-03-31T21:16:11.009Z,1.70
2023-03-31T21:18:39.541Z,1.60
2023-03-31T21:21:14.462Z,1.50
2023-03-31T21:23:41.867Z,1.40
2023-03-31T21:26:10.701Z,1.40
2023-03-31T21:28:38.728Z,1.47
2023-03-31T21:31:06.287Z,1.90
2023-03-31T21:33:34.833Z,1.90
2023-03-31T21:36:02.382Z,1.93
2023-03-31T21:38:29.898Z,1.20
2023-03-31T21:40:57.568Z,1.47
2023-03-31T21:43:26.234Z,1.47
2023-03-31T21:45:58.004Z,1.30
2023-03-31T21:48:26.535Z,1.80
2023-03-31T21:50:54.887Z,1.93
2023-03-31T21:53:23.145Z,1.97
2023-03-31T21:55:52.763Z,1.77
2023-03-31T21:58:20.192Z,1.60
2023-03-31T22:00:47.848Z,1.63
2023-03-31T22:03:26.580Z,1.70
2023-03-31T22:05:58.330Z,1.60
2023-03-31T22:08:29.589Z,1.77
2023-03-31T22:10:58.068Z,1.30
2023-03-31T22:13:26.071Z,1.77
2023-03-31T22:15:53.868Z,1.70
2023-03-31T22:18:22.091Z,1.47
2023-03-31T22:20:50.377Z,1.90
2023-03-31T22:23:20.517Z,1.90
2023-03-31T22:25:48.474Z,1.87
2023-03-31T22:28:16.948Z,2.10
2023-03-31T22:30:44.438Z,2.50
2023-03-31T22:33:13.213Z,2.50
2023-03-31T22:35:40.833Z,1.80
2023-03-31T22:38:08.789Z,1.70
2023-03-31T22:40:36.821Z,2.10
2023-03-31T22:43:04.785Z,2.87
2023-03-31T22:45:32.347Z,2.63
2023-03-31T22:47:59.926Z,2.47
2023-03-31T22:50:27.498Z,1.80
2023-03-31T22:52:54.860Z,2.50
2023-03-31T22:55:22.940Z,2.50
2023-03-31T22:57:50.473Z,2.23
2023-03-31T23:00:18.190Z,2.33
2023-03-31T23:02:45.817Z,2.73
2023-03-31T23:05:13.282Z,3.03
2023-03-31T23:07:41.681Z,2.90
2023-03-31T23:10:09.365Z,2.57
2023-03-31T23:12:36.928Z,2.23
2023-03-31T23:15:04.332Z,1.97
2023-03-31T23:17:31.733Z,2.40
2023-03-31T23:19:59.173Z,2.20
2023-03-31T23:22:26.505Z,2.53
2023-03-31T23:24:54.120Z,2.63
2023-03-31T23:27:21.982Z,2.50
2023-03-31T23:29:49.625Z,2.20
2023-03-31T23:32:17.014Z,2.27
2023-03-31T23:34:44.398Z,2.40
2023-03-31T23:37:14.029Z,2.07
2023-03-31T23:39:41.929Z,2.73
2023-03-31T23:42:10.334Z,2.00
2023-03-31T23:44:37.939Z,2.40
2023-03-31T23:47:05.994Z,2.67
2023-03-31T23:49:33.619Z,2.17
2023-03-31T23:52:01.274Z,2.83
2023-03-31T23:54:29.047Z,2.30
2023-03-31T23:56:56.536Z,1.70
2023-03-31T23:59:23.951Z,2.27
